Time;durP1;ratioP1;P1;durP2;ratioP2;P2;SDS_P1;SDS_P2;PMS_P1;PMS_P2;Temp;Humidity;BMP_temperature;BMP_pressure;BME280_temperature;BME280_humidity;BME280_pressure;Samples;Min_cycle;Max_cycle;Signal;HPM_P1;HPM_P2
2024/01/10 00:00:06;;;;;;;6.55;4.50;;;;;;;-13.67;78.83;99933.56;5029454;28;20059;-65
2024/01/10 00:02:36;;;;;;;5.13;4.22;;;;;;;-13.63;78.89;99922.97;5036515;28;20147;-64
2024/01/10 00:05:07;;;;;;;8.20;4.70;;;;;;;-13.64;78.76;99926.25;5038535;28;20499;-66
2024/01/10 00:07:38;;;;;;;4.93;4.35;;;;;;;-13.56;79.60;99930.19;5028933;28;20451;-61
2024/01/10 00:10:09;;;;;;;4.22;3.85;;;;;;;-13.60;79.42;99925.72;5039053;28;20107;-65
2024/01/10 00:12:44;;;;;;;6.43;4.57;;;;;;;-13.72;80.10;99913.13;5028291;28;20536;-64
2024/01/10 00:15:14;;;;;;;7.03;5.05;;;;;;;-13.69;80.23;99925.91;5038560;28;20105;-65
2024/01/10 00:17:45;;;;;;;5.82;4.03;;;;;;;-13.66;79.81;99932.78;5028733;28;20650;-64
2024/01/10 00:20:15;;;;;;;7.10;5.07;;;;;;;-13.54;79.84;99928.66;5038901;28;20050;-65
2024/01/10 00:22:46;;;;;;;4.90;4.13;;;;;;;-13.51;78.90;99923.88;5028386;28;20044;-64
2024/01/10 00:25:17;;;;;;;6.82;4.60;;;;;;;-13.60;76.50;99943.31;5038712;28;20056;-62
2024/01/10 00:27:49;;;;;;;8.35;4.78;;;;;;;-13.63;76.78;99958.13;5028101;28;20052;-66
2024/01/10 00:30:19;;;;;;;4.18;3.78;;;;;;;-13.50;76.57;99954.91;5038321;28;20052;-65
2024/01/10 00:32:49;;;;;;;6.15;4.15;;;;;;;-13.63;77.39;99953.13;5028741;28;20052;-64
2024/01/10 00:35:20;;;;;;;6.65;5.10;;;;;;;-13.66;77.53;99952.91;5039129;28;20486;-65
2024/01/10 00:37:50;;;;;;;7.82;5.20;;;;;;;-13.62;78.13;99954.88;5034117;28;20048;-64
2024/01/10 00:40:21;;;;;;;4.90;3.90;;;;;;;-13.57;78.32;99953.59;5045291;28;20047;-65
2024/01/10 00:42:53;;;;;;;11.00;6.63;;;;;;;-13.38;78.55;99954.91;5035078;28;20052;-64
2024/01/10 00:45:23;;;;;;;7.93;5.05;;;;;;;-13.15;78.43;99965.00;5044597;28;20083;-65
2024/01/10 00:47:54;;;;;;;6.40;5.35;;;;;;;-13.25;77.38;99942.47;5035292;28;20747;-65
2024/01/10 00:50:24;;;;;;;7.70;4.45;;;;;;;-13.34;77.99;99921.72;5045158;28;20082;-66
2024/01/10 00:52:55;;;;;;;4.32;3.80;;;;;;;-13.15;76.27;99944.88;5034110;28;20535;-64
2024/01/10 00:55:25;;;;;;;4.45;3.45;;;;;;;-13.08;76.74;99952.09;5044850;28;20839;-64
2024/01/10 00:57:57;;;;;;;6.35;4.90;;;;;;;-13.20;76.40;99946.19;5034783;28;20185;-63
2024/01/10 01:00:28;;;;;;;6.50;4.60;;;;;;;-13.22;77.26;99951.88;5045382;28;20656;-63
2024/01/10 01:02:58;;;;;;;8.45;4.80;;;;;;;-13.13;76.98;99953.38;5035000;28;20205;-64
2024/01/10 01:05:28;;;;;;;4.45;3.53;;;;;;;-13.20;76.23;99951.22;5045112;28;20054;-63
2024/01/10 01:07:59;;;;;;;14.32;4.85;;;;;;;-13.27;75.46;99949.03;5026103;28;20053;-66
2024/01/10 01:10:30;;;;;;;5.55;3.72;;;;;;;-13.36;76.04;99955.91;5045072;28;20062;-63
2024/01/10 01:13:04;;;;;;;6.28;4.03;;;;;;;-13.39;75.97;99954.06;5035754;28;20147;-66
2024/01/10 01:15:35;;;;;;;8.45;4.53;;;;;;;-13.39;75.64;99958.22;5046083;28;20076;-66
2024/01/10 01:18:05;;;;;;;5.63;4.15;;;;;;;-13.49;75.60;99956.66;5035894;28;20179;-64
2024/01/10 01:20:36;;;;;;;5.38;4.00;;;;;;;-13.54;75.40;99953.81;5064970;28;20064;-63
2024/01/10 01:23:07;;;;;;;5.50;4.03;;;;;;;-13.69;75.48;99937.59;5033496;28;20053;-66
2024/01/10 01:25:37;;;;;;;8.30;4.90;;;;;;;-13.64;74.80;99946.34;5041373;28;20060;-63
2024/01/10 01:28:09;;;;;;;7.45;4.65;;;;;;;-13.59;74.32;99950.06;5039224;28;20056;-65
2024/01/10 01:30:40;;;;;;;7.20;4.55;;;;;;;-13.55;74.29;99944.53;5024205;28;20571;-63
2024/01/10 01:33:11;;;;;;;5.40;4.00;;;;;;;-13.38;74.06;99947.38;5034418;28;20121;-65
2024/01/10 01:35:41;;;;;;;6.63;4.43;;;;;;;-13.47;73.06;99956.00;5025064;28;20052;-65
2024/01/10 01:38:11;;;;;;;7.47;4.57;;;;;;;-13.40;72.67;99958.94;5034673;28;20135;-66
2024/01/10 01:40:42;;;;;;;10.90;5.65;;;;;;;-13.44;72.25;99954.50;5024337;28;20048;-62
2024/01/10 01:43:24;;;;;;;5.45;4.25;;;;;;;-13.66;72.52;99947.88;5035970;28;20183;-63
2024/01/10 01:45:56;;;;;;;4.90;3.88;;;;;;;-13.45;72.12;99962.78;5024403;28;20685;-65
2024/01/10 01:48:26;;;;;;;8.65;4.70;;;;;;;-14.01;72.53;99908.44;5031676;28;20083;-63
2024/01/10 01:50:59;;;;;;;7.68;5.10;;;;;;;-13.87;72.38;99928.72;5022768;28;20060;-65
2024/01/10 01:53:30;;;;;;;8.98;4.15;;;;;;;-13.70;72.00;99960.97;5031736;28;20186;-63
2024/01/10 01:56:04;;;;;;;6.38;4.45;;;;;;;-13.55;71.71;99959.59;5020596;28;20053;-62
2024/01/10 01:58:37;;;;;;;6.10;4.15;;;;;;;-13.45;71.33;99947.69;5031300;28;20052;-64
2024/01/10 02:01:08;;;;;;;5.60;4.63;;;;;;;-13.38;70.72;99955.78;5007682;28;20049;-64
2024/01/10 02:03:39;;;;;;;6.28;4.15;;;;;;;-13.57;69.33;99966.16;5011528;28;20095;-61
2024/01/10 02:06:09;;;;;;;8.80;5.40;;;;;;;-13.62;69.62;99954.88;5022009;28;20130;-64
2024/01/10 02:08:40;;;;;;;4.95;4.30;;;;;;;-13.55;69.80;99957.09;5012421;28;20053;-61
2024/01/10 02:11:11;;;;;;;7.03;4.75;;;;;;;-13.44;69.57;99964.53;5021419;28;20057;-64
2024/01/10 02:13:43;;;;;;;4.75;3.67;;;;;;;-13.58;68.32;99966.88;5011380;28;20382;-64
2024/01/10 02:16:14;;;;;;;10.85;5.57;;;;;;;-14.18;69.21;99899.66;5021482;28;20048;-61
2024/01/10 02:18:44;;;;;;;8.82;4.10;;;;;;;-13.75;68.66;99982.34;5011124;28;20793;-63
2024/01/10 02:21:15;;;;;;;12.48;6.60;;;;;;;-13.78;68.74;99982.13;5021297;28;20159;-64
2024/01/10 02:23:45;;;;;;;5.88;4.18;;;;;;;-13.86;68.83;99978.16;5011383;28;20057;-62
2024/01/10 02:26:17;;;;;;;6.07;4.60;;;;;;;-13.86;68.87;99983.19;5021581;28;20053;-63
2024/01/10 02:28:48;;;;;;;7.25;5.43;;;;;;;-13.76;69.60;99975.59;5044702;28;20134;-64
2024/01/10 02:31:18;;;;;;;4.18;3.70;;;;;;;-13.58;69.59;99987.00;5059061;28;20048;-66
2024/01/10 02:33:49;;;;;;;8.55;5.72;;;;;;;-13.62;68.87;99967.44;5049824;28;20052;-65
2024/01/10 02:36:19;;;;;;;6.65;4.20;;;;;;;-13.85;68.38;99980.81;5060925;28;20138;-63
2024/01/10 02:38:50;;;;;;;8.32;5.43;;;;;;;-13.92;68.63;99988.63;5050370;28;20076;-64
2024/01/10 02:41:22;;;;;;;8.85;5.55;;;;;;;-13.92;69.06;99978.59;5059834;28;20070;-65
2024/01/10 02:43:52;;;;;;;6.40;4.80;;;;;;;-13.82;69.08;99990.22;5049413;28;20044;-65
2024/01/10 02:46:23;;;;;;;8.23;5.38;;;;;;;-13.78;69.66;99982.13;5059853;28;20438;-63
2024/01/10 02:48:53;;;;;;;4.72;4.13;;;;;;;-13.56;68.82;99972.91;5048774;28;20480;-64
2024/01/10 02:51:24;;;;;;;6.22;5.28;;;;;;;-13.26;67.96;99973.38;5059779;28;20140;-65
2024/01/10 02:53:54;;;;;;;8.20;5.50;;;;;;;-13.31;67.38;99977.22;5049557;28;20266;-64
2024/01/10 02:56:26;;;;;;;10.82;5.95;;;;;;;-13.22;67.70;99972.84;5059835;28;20085;-65
2024/01/10 02:58:56;;;;;;;7.68;5.03;;;;;;;-13.16;67.21;99983.34;5048526;28;20133;-62
2024/01/10 03:01:27;;;;;;;5.95;4.90;;;;;;;-13.22;67.60;99982.91;5059491;28;20074;-66
2024/01/10 03:03:57;;;;;;;4.57;4.10;;;;;;;-13.23;67.90;99986.16;5048555;28;20050;-63
2024/01/10 03:06:28;;;;;;;10.38;6.35;;;;;;;-13.56;67.37;99987.97;5058774;28;20048;-64
2024/01/10 03:08:58;;;;;;;8.25;5.40;;;;;;;-13.81;66.71;99992.81;5048957;28;20049;-61
2024/01/10 03:11:30;;;;;;;8.70;5.47;;;;;;;-13.80;66.81;99983.63;5059504;28;20048;-64
2024/01/10 03:14:04;;;;;;;7.80;5.60;;;;;;;-13.74;66.12;99994.16;5048642;28;20066;-64
2024/01/10 03:16:34;;;;;;;13.38;5.28;;;;;;;-13.63;66.23;99990.81;5059170;28;20428;-62
2024/01/10 03:19:05;;;;;;;10.73;5.78;;;;;;;-13.39;66.78;99994.25;5033000;28;20058;-65
2024/01/10 03:21:35;;;;;;;12.55;5.97;;;;;;;-13.27;66.16;99979.22;5041125;28;20151;-62
2024/01/10 03:24:15;;;;;;;7.45;5.60;;;;;;;-13.45;65.65;99967.78;5027524;28;20114;-63
2024/01/10 03:26:47;;;;;;;8.73;5.38;;;;;;;-13.33;66.03;99978.75;5033942;28;20060;-62
2024/01/10 03:29:17;;;;;;;8.75;5.93;;;;;;;-13.22;66.26;99982.91;5044331;28;20084;-62
2024/01/10 03:31:48;;;;;;;7.28;4.95;;;;;;;-13.10;65.46;99978.78;5033397;28;20060;-61
2024/01/10 03:34:18;;;;;;;9.50;6.22;;;;;;;-13.16;66.61;99983.34;5044023;28;20052;-62
2024/01/10 03:36:48;;;;;;;7.50;5.15;;;;;;;-13.27;67.75;99984.25;5033634;28;20476;-62
2024/01/10 03:39:20;;;;;;;7.80;5.05;;;;;;;-13.35;69.06;100000.38;5043915;28;20060;-62
2024/01/10 03:41:52;;;;;;;8.52;5.05;;;;;;;-13.20;70.33;99988.03;5034268;28;20080;-61
2024/01/10 03:44:22;;;;;;;6.57;4.78;;;;;;;-13.41;71.20;100003.31;5044227;28;20084;-61
2024/01/10 03:46:53;;;;;;;10.52;6.55;;;;;;;-13.59;72.07;100005.34;5033570;28;20139;-65
2024/01/10 03:49:23;;;;;;;8.57;5.55;;;;;;;-13.51;72.35;100013.47;5043859;28;20515;-64
2024/01/10 03:51:54;;;;;;;10.45;6.07;;;;;;;-13.49;72.73;100006.91;5033633;28;20056;-63
2024/01/10 03:54:24;;;;;;;11.20;6.25;;;;;;;-13.43;72.45;100011.50;5043482;28;20045;-63
2024/01/10 03:56:56;;;;;;;13.38;6.43;;;;;;;-13.47;72.37;100006.28;5034177;28;20052;-63
2024/01/10 03:59:26;;;;;;;11.50;6.35;;;;;;;-13.48;72.64;100009.56;5043608;28;20125;-61
2024/01/10 04:01:57;;;;;;;11.25;6.28;;;;;;;-13.68;72.16;100019.72;5033704;28;20057;-61
2024/01/10 04:04:27;;;;;;;7.03;5.75;;;;;;;-13.62;72.50;100010.16;5043595;28;20045;-64
2024/01/10 04:06:58;;;;;;;7.80;5.82;;;;;;;-13.75;72.47;100017.50;5033240;28;20057;-63
2024/01/10 04:09:28;;;;;;;11.85;5.55;;;;;;;-13.66;72.31;100018.22;5043709;28;20377;-62
2024/01/10 04:12:00;;;;;;;14.70;7.30;;;;;;;-13.94;73.02;100001.06;5032572;28;20123;-60
2024/01/10 04:14:31;;;;;;;9.68;6.15;;;;;;;-13.95;73.88;100009.38;5043128;28;20160;-63
2024/01/10 04:17:01;;;;;;;8.48;5.43;;;;;;;-13.88;73.96;100019.88;5032886;28;20460;-64
2024/01/10 04:19:31;;;;;;;12.38;6.15;;;;;;;-13.94;73.47;100026.19;5043270;28;20097;-62
2024/01/10 04:22:02;;;;;;;5.97;5.10;;;;;;;-13.99;73.29;100022.44;5052866;28;20134;-64
2024/01/10 04:24:32;;;;;;;7.85;5.50;;;;;;;-14.09;72.48;100025.00;5030172;28;20388;-62
2024/01/10 04:27:05;;;;;;;9.27;6.15;;;;;;;-14.08;72.12;100021.72;5017264;28;20064;-61
2024/01/10 04:29:39;;;;;;;5.43;4.80;;;;;;;-14.18;72.35;100015.13;5033866;28;20055;-64
2024/01/10 04:32:09;;;;;;;7.53;5.57;;;;;;;-14.23;72.87;100015.53;5043568;28;20048;-61
2024/01/10 04:34:39;;;;;;;7.60;5.57;;;;;;;-14.21;72.27;100024.06;5032942;28;20129;-63
2024/01/10 04:37:10;;;;;;;11.27;5.55;;;;;;;-14.41;72.85;100009.97;5043265;28;20507;-62
2024/01/10 04:39:42;;;;;;;10.05;6.40;;;;;;;-14.29;72.76;100033.50;5033374;28;20117;-62
2024/01/10 04:42:15;;;;;;;9.65;5.25;;;;;;;-14.39;72.63;100043.59;5043479;28;20048;-62
2024/01/10 04:44:45;;;;;;;8.30;5.75;;;;;;;-14.50;73.43;100045.28;5033588;28;20492;-63
2024/01/10 04:47:15;;;;;;;9.50;6.10;;;;;;;-14.60;73.87;100043.69;5043137;28;20072;-61
2024/01/10 04:49:46;;;;;;;12.90;6.35;;;;;;;-14.55;73.89;100046.53;5032857;28;20627;-63
2024/01/10 04:52:16;;;;;;;8.93;6.63;;;;;;;-14.54;73.86;100050.81;5043156;28;20644;-63
2024/01/10 04:54:47;;;;;;;7.00;5.15;;;;;;;-14.47;73.59;100055.53;5032727;28;20090;-63
2024/01/10 04:57:19;;;;;;;7.63;5.85;;;;;;;-14.45;73.69;100078.22;5042798;28;20127;-64
2024/01/10 04:59:49;;;;;;;11.90;6.00;;;;;;;-14.64;73.23;100036.69;5033388;28;20122;-61
2024/01/10 05:02:20;;;;;;;11.38;6.90;;;;;;;-14.48;73.60;100073.84;5043353;28;20098;-63
2024/01/10 05:04:51;;;;;;;10.35;6.80;;;;;;;-14.55;73.79;100071.63;5032731;28;20056;-61
2024/01/10 05:07:22;;;;;;;11.35;6.90;;;;;;;-14.57;73.86;100073.16;5042911;28;20041;-63
2024/01/10 05:09:52;;;;;;;9.65;5.45;;;;;;;-14.58;74.08;100088.97;5032867;28;20140;-60
2024/01/10 05:12:25;;;;;;;9.18;6.25;;;;;;;-14.59;73.94;100084.72;5042236;28;20044;-63
2024/01/10 05:14:55;;;;;;;11.68;6.03;;;;;;;-14.55;73.93;100086.69;5034131;28;20060;-62
2024/01/10 05:17:25;;;;;;;8.00;5.80;;;;;;;-14.56;74.11;100094.97;5039004;28;20109;-65
2024/01/10 05:19:56;;;;;;;8.02;5.57;;;;;;;-14.57;74.44;100089.09;5032577;28;20800;-63
2024/01/10 05:22:27;;;;;;;9.05;5.43;;;;;;;-14.56;74.10;100090.84;5044801;28;20094;-64
2024/01/10 05:24:56;;;;;;;11.82;6.78;;;;;;;-14.50;74.13;100105.50;5036591;28;20685;-62
2024/01/10 05:27:28;;;;;;;8.25;5.45;;;;;;;-14.51;73.54;100096.19;5046376;28;20053;-65
2024/01/10 05:29:59;;;;;;;6.40;5.07;;;;;;;-14.60;73.32;100103.91;5036887;28;20048;-62
2024/01/10 05:32:29;;;;;;;17.80;6.38;;;;;;;-14.67;73.64;100108.31;5037107;28;20385;-61
2024/01/10 05:35:00;;;;;;;11.50;5.60;;;;;;;-14.71;73.74;100123.84;5033691;28;20059;-61
2024/01/10 05:37:31;;;;;;;11.43;6.47;;;;;;;-14.75;74.15;100126.84;5045951;28;20045;-63
2024/01/10 05:40:01;;;;;;;10.07;5.78;;;;;;;-14.76;74.05;100131.00;5024721;28;20059;-61
2024/01/10 05:42:34;;;;;;;9.13;4.95;;;;;;;-14.82;74.26;100138.91;5027090;28;20150;-65
2024/01/10 05:45:04;;;;;;;11.57;7.25;;;;;;;-14.81;74.02;100138.16;5036571;28;20045;-64
2024/01/10 05:47:34;;;;;;;8.00;5.32;;;;;;;-14.81;73.87;100155.69;5046826;28;20054;-63
2024/01/10 05:50:06;;;;;;;10.05;5.65;;;;;;;-14.98;74.15;100147.56;5032319;28;20143;-61
2024/01/10 05:52:36;;;;;;;9.80;6.30;;;;;;;-14.85;74.26;100160.34;5030623;28;20485;-63
2024/01/10 05:55:08;;;;;;;11.40;7.13;;;;;;;-14.92;74.09;100164.00;5026869;28;20065;-61
2024/01/10 05:57:40;;;;;;;9.65;6.10;;;;;;;-14.95;73.85;100163.72;5021068;28;20049;-61
2024/01/10 06:00:12;;;;;;;11.82;6.20;;;;;;;-14.97;73.84;100160.22;5046228;28;20059;-62
2024/01/10 06:02:43;;;;;;;10.57;6.82;;;;;;;-15.00;73.43;100175.00;5036560;28;20052;-64
2024/01/10 06:05:14;;;;;;;10.23;6.18;;;;;;;-15.07;73.56;100167.75;5046350;28;20360;-60
2024/01/10 06:07:44;;;;;;;16.40;7.65;;;;;;;-15.10;73.59;100168.38;5027804;28;20060;-60
2024/01/10 06:10:15;;;;;;;7.53;5.85;;;;;;;-15.11;73.67;100170.72;5044599;28;20044;-60
2024/01/10 06:12:47;;;;;;;8.38;4.88;;;;;;;-15.16;73.55;100182.00;5034295;28;20122;-62
2024/01/10 06:15:17;;;;;;;7.47;5.32;;;;;;;-15.18;73.67;100186.00;5045286;28;20095;-62
2024/01/10 06:17:49;;;;;;;10.85;6.60;;;;;;;-15.18;73.46;100188.53;5035870;28;20103;-64
2024/01/10 06:20:20;;;;;;;11.05;6.22;;;;;;;-15.13;73.37;100204.81;5045187;28;20044;-62
2024/01/10 06:22:50;;;;;;;10.52;6.18;;;;;;;-15.09;73.48;100199.31;5016279;28;20511;-61
2024/01/10 06:25:21;;;;;;;13.63;6.40;;;;;;;-15.18;73.06;100206.06;5011002;28;20053;-62
2024/01/10 06:27:53;;;;;;;10.20;5.88;;;;;;;-15.15;73.23;100223.84;5022409;28;20052;-62
2024/01/10 06:30:23;;;;;;;10.23;6.45;;;;;;;-15.19;72.88;100221.84;5045754;28;20084;-61
2024/01/10 06:32:55;;;;;;;11.80;6.55;;;;;;;-15.22;72.59;100223.34;5035412;28;20067;-60
2024/01/10 06:35:25;;;;;;;16.05;6.72;;;;;;;-15.29;72.30;100216.06;5045001;28;20055;-61
2024/01/10 06:37:58;;;;;;;10.20;6.22;;;;;;;-15.32;72.11;100225.84;5034880;28;20076;-61
2024/01/10 06:40:29;;;;;;;11.10;5.97;;;;;;;-15.34;72.34;100232.34;5036414;28;20064;-62
2024/01/10 06:43:02;;;;;;;11.93;5.97;;;;;;;-15.38;72.23;100222.78;5034612;28;20131;-61
2024/01/10 06:45:32;;;;;;;11.55;6.13;;;;;;;-15.41;72.28;100220.03;5045012;28;20072;-64
2024/01/10 06:48:02;;;;;;;11.85;6.38;;;;;;;-15.49;72.15;100226.03;5026826;28;20753;-61
2024/01/10 06:50:33;;;;;;;12.10;7.22;;;;;;;-15.66;71.74;100237.97;5039011;28;20468;-62
2024/01/10 06:53:03;;;;;;;16.00;7.47;;;;;;;-15.76;71.83;100240.47;5021018;28;20064;-62
2024/01/10 06:55:34;;;;;;;14.57;6.70;;;;;;;-15.78;72.00;100236.94;5044792;28;20567;-62
2024/01/10 06:58:06;;;;;;;14.75;7.25;;;;;;;-15.93;71.67;100235.63;5034181;28;20114;-61
2024/01/10 07:00:38;;;;;;;9.77;6.38;;;;;;;-16.11;71.55;100240.75;5043508;28;20140;-62
2024/01/10 07:03:08;;;;;;;15.48;7.60;;;;;;;-16.20;71.75;100242.44;5044739;28;20152;-61
2024/01/10 07:05:39;;;;;;;22.85;10.65;;;;;;;-16.39;71.23;100246.59;5034696;28;20268;-61
2024/01/10 07:08:09;;;;;;;24.42;11.15;;;;;;;-16.47;71.34;100252.50;5045013;28;20506;-62
2024/01/10 07:10:40;;;;;;;18.08;9.88;;;;;;;-16.53;71.48;100251.22;5034528;28;20056;-61
2024/01/10 07:13:12;;;;;;;27.27;9.80;;;;;;;-16.66;71.52;100245.88;5035529;28;20811;-63
2024/01/10 07:15:42;;;;;;;115.18;42.53;;;;;;;-17.00;71.01;100247.81;5019679;28;20076;-63
2024/01/10 07:18:13;;;;;;;103.38;39.00;;;;;;;-17.24;70.98;100270.56;5036828;28;20044;-62
2024/01/10 07:20:43;;;;;;;67.65;28.45;;;;;;;-17.45;71.37;100270.31;5015741;28;20087;-63
2024/01/10 07:23:14;;;;;;;90.63;38.95;;;;;;;-17.59;71.73;100280.66;5034223;28;20057;-63
2024/01/10 07:25:44;;;;;;;26.60;11.65;;;;;;;-17.57;72.46;100278.28;5021228;28;20151;-61
2024/01/10 07:28:16;;;;;;;21.67;11.10;;;;;;;-17.73;72.67;100286.81;5024705;28;20049;-61
2024/01/10 07:30:47;;;;;;;11.18;7.15;;;;;;;-18.18;71.83;100293.31;5014871;28;20477;-63
2024/01/10 07:33:18;;;;;;;10.52;7.20;;;;;;;-18.59;72.24;100302.63;5024873;28;20473;-64
2024/01/10 07:35:48;;;;;;;11.57;6.80;;;;;;;-18.71;72.80;100303.19;5014582;28;20494;-62
2024/01/10 07:38:18;;;;;;;12.15;7.05;;;;;;;-18.86;72.89;100301.72;5024084;28;20253;-64
2024/01/10 07:40:49;;;;;;;9.25;6.78;;;;;;;-19.40;73.07;100243.19;5028263;28;20052;-62
2024/01/10 07:43:21;;;;;;;11.05;7.80;;;;;;;-19.24;73.78;100326.16;5043962;28;20076;-63
2024/01/10 07:45:52;;;;;;;11.80;7.15;;;;;;;-19.41;74.33;100326.94;5033504;28;20052;-63
2024/01/10 07:48:23;;;;;;;11.15;6.53;;;;;;;-19.35;75.03;100331.66;5043655;28;20044;-62
2024/01/10 07:50:53;;;;;;;13.30;6.95;;;;;;;-19.51;75.04;100338.28;5032594;28;20086;-63
2024/01/10 07:53:26;;;;;;;11.88;7.70;;;;;;;-19.61;75.42;100337.34;5042712;28;20508;-63
2024/01/10 07:55:57;;;;;;;10.32;6.43;;;;;;;-19.70;75.17;100346.38;5032253;28;20101;-63
2024/01/10 07:58:29;;;;;;;6.20;5.60;;;;;;;-19.93;75.28;100343.13;5042835;28;20143;-63
2024/01/10 08:01:00;;;;;;;7.70;6.55;;;;;;;-20.13;75.48;100341.94;5031992;28;20052;-63
2024/01/10 08:03:30;;;;;;;8.45;6.50;;;;;;;-20.25;75.71;100345.59;5043491;28;20052;-66
2024/01/10 08:06:01;;;;;;;9.02;7.30;;;;;;;-20.39;76.02;100340.78;5033595;28;20078;-64
2024/01/10 08:08:31;;;;;;;10.95;8.02;;;;;;;-20.40;76.34;100334.06;5043348;28;20076;-65
2024/01/10 08:11:01;;;;;;;10.45;6.82;;;;;;;-20.53;76.18;100342.69;5015902;28;20140;-63
2024/01/10 08:13:34;;;;;;;7.72;6.28;;;;;;;-20.64;76.46;100342.31;5003989;28;20050;-65
2024/01/10 08:16:05;;;;;;;6.30;5.72;;;;;;;-20.75;76.96;100348.63;5013063;28;20130;-64
2024/01/10 08:18:35;;;;;;;11.13;7.40;;;;;;;-20.79;77.41;100352.34;5023517;28;20524;-64
2024/01/10 08:21:06;;;;;;;8.07;7.22;;;;;;;-20.74;77.61;100360.31;5006528;28;20099;-66
2024/01/10 08:23:36;;;;;;;7.40;6.03;;;;;;;-20.68;77.77;100356.00;5023877;28;20158;-62
2024/01/10 08:26:09;;;;;;;7.90;6.60;;;;;;;-20.72;77.63;100358.88;4993745;28;20129;-63
2024/01/10 08:28:42;;;;;;;7.05;6.35;;;;;;;-20.81;77.59;100360.34;4997595;28;20057;-65
2024/01/10 08:31:13;;;;;;;7.30;5.82;;;;;;;-20.84;77.71;100365.00;5004812;28;20057;-64
2024/01/10 08:33:44;;;;;;;30.23;10.48;;;;;;;-20.84;77.82;100374.94;4995047;28;20057;-63
2024/01/10 08:36:15;;;;;;;9.10;6.05;;;;;;;-20.88;77.89;100375.34;5024149;28;20067;-62
2024/01/10 08:38:46;;;;;;;8.32;6.78;;;;;;;-20.92;77.87;100379.97;5015190;28;20090;-66
2024/01/10 08:41:16;;;;;;;6.30;5.72;;;;;;;-20.96;78.07;100382.84;5024546;28;20052;-66
2024/01/10 08:43:48;;;;;;;6.68;5.47;;;;;;;-21.04;78.26;100372.78;5014542;28;20134;-64
2024/01/10 08:46:19;;;;;;;8.65;6.85;;;;;;;-20.87;78.47;100387.91;5024021;28;20563;-69
2024/01/10 08:48:50;;;;;;;8.73;7.50;;;;;;;-20.79;78.23;100386.25;5015597;28;20049;-66
2024/01/10 08:51:21;;;;;;;6.55;5.93;;;;;;;-20.85;77.86;100388.09;5029519;28;20068;-67
2024/01/10 08:53:52;;;;;;;6.22;5.63;;;;;;;-20.96;77.91;100387.81;5014966;28;20132;-64
2024/01/10 08:56:23;;;;;;;6.65;5.95;;;;;;;-21.10;77.99;100377.97;5024054;28;20135;-65
2024/01/10 08:58:55;;;;;;;9.13;5.95;;;;;;;-21.01;78.36;100383.94;5016686;28;20057;-66
2024/01/10 09:01:38;;;;;;;5.45;5.05;;;;;;;-20.99;78.67;100384.97;5042747;28;20056;-65
2024/01/10 09:04:09;;;;;;;6.07;5.68;;;;;;;-20.95;78.52;100392.03;5019842;28;20656;-70
2024/01/10 09:06:39;;;;;;;5.43;5.03;;;;;;;-20.95;78.60;100389.56;5032346;28;20057;-67
2024/01/10 09:09:09;;;;;;;11.93;7.72;;;;;;;-20.90;78.63;100393.44;5042161;28;20049;-70
2024/01/10 09:11:40;;;;;;;6.10;5.55;;;;;;;-20.84;78.87;100402.25;5033195;28;20064;-66
2024/01/10 09:14:15;;;;;;;7.85;6.05;;;;;;;-20.78;79.09;100407.91;5043333;28;20048;-68
2024/01/10 09:16:46;;;;;;;7.05;6.35;;;;;;;-20.74;79.07;100408.41;5033213;28;20106;-67
2024/01/10 09:19:17;;;;;;;6.68;6.00;;;;;;;-20.66;79.30;100409.22;5042934;28;20150;-66
2024/01/10 09:21:48;;;;;;;6.88;5.65;;;;;;;-20.63;79.19;100424.44;5032765;28;20567;-65
2024/01/10 09:24:18;;;;;;;6.88;6.18;;;;;;;-20.67;78.82;100422.34;5042447;28;20072;-65
2024/01/10 09:26:58;;;;;;;9.52;7.18;;;;;;;-20.70;78.65;100437.81;5032674;28;20456;-69
2024/01/10 09:29:31;;;;;;;15.02;9.90;;;;;;;-20.34;79.11;100449.00;5042499;28;20072;-66
2024/01/10 09:32:01;;;;;;;11.38;8.25;;;;;;;-20.37;78.10;100454.53;5032146;28;20048;-66
2024/01/10 09:34:32;;;;;;;12.25;7.07;;;;;;;-20.38;77.40;100461.84;5042624;28;20051;-70
2024/01/10 09:37:04;;;;;;;14.30;7.88;;;;;;;-20.43;76.31;100458.00;5031950;28;21011;-69
2024/01/10 09:39:34;;;;;;;13.82;7.80;;;;;;;-20.63;75.57;100454.25;5042394;28;20155;-64
2024/01/10 09:42:06;;;;;;;43.80;17.65;;;;;;;-20.87;74.45;100451.59;5031759;28;20130;-67
2024/01/10 09:44:38;;;;;;;33.08;14.23;;;;;;;-21.09;74.20;100474.03;5042192;28;20448;-66
2024/01/10 09:47:09;;;;;;;25.70;13.52;;;;;;;-21.12;74.57;100468.75;5032176;28;20059;-68
2024/01/10 09:49:39;;;;;;;27.77;12.35;;;;;;;-21.02;74.91;100469.06;5032147;28;20058;-68
2024/01/10 09:52:12;;;;;;;25.33;13.60;;;;;;;-20.86;75.27;100470.72;5042634;28;20063;-69
2024/01/10 09:54:46;;;;;;;20.52;10.63;;;;;;;-20.77;74.87;100474.22;5032407;28;20731;-68
2024/01/10 09:57:17;;;;;;;16.52;8.88;;;;;;;-20.71;74.73;100462.50;5042030;28;20481;-65
2024/01/10 09:59:51;;;;;;;11.98;7.55;;;;;;;-20.75;74.34;100468.72;5032545;28;21371;-66
2024/01/10 10:02:22;;;;;;;13.15;7.93;;;;;;;-20.86;73.93;100463.28;5041641;28;20193;-69
2024/01/10 10:05:03;;;;;;;10.82;6.65;;;;;;;-21.32;73.07;100422.75;5031621;28;20118;-69
2024/01/10 10:07:45;;;;;;;9.30;7.10;;;;;;;-21.30;73.18;100471.69;5041652;28;20052;-69
2024/01/10 10:10:16;;;;;;;11.88;8.30;;;;;;;-21.19;73.73;100466.31;5024482;28;20067;-66
2024/01/10 10:12:48;;;;;;;13.43;9.07;;;;;;;-21.17;73.47;100459.91;5030880;28;20058;-68
2024/01/10 10:15:22;;;;;;;16.13;9.93;;;;;;;-21.51;73.38;100416.53;5041474;28;20048;-68
2024/01/10 10:17:53;;;;;;;17.23;11.43;;;;;;;-21.08;73.54;100483.28;5029955;28;20056;-65
2024/01/10 10:20:25;;;;;;;14.25;9.88;;;;;;;-21.20;73.11;100499.28;5040670;28;20470;-67
2024/01/10 10:23:04;;;;;;;17.40;10.10;;;;;;;-21.08;73.57;100499.78;5030444;28;20056;-70
2024/01/10 10:25:37;;;;;;;16.60;9.25;;;;;;;-20.95;73.49;100493.84;5040078;28;20062;-65
2024/01/10 10:28:08;;;;;;;12.52;7.63;;;;;;;-20.91;73.00;100495.09;5022719;28;20044;-68
2024/01/10 10:30:53;;;;;;;13.13;8.35;;;;;;;-20.99;72.70;100505.75;5049416;28;20438;-64
2024/01/10 10:33:24;;;;;;;29.77;15.18;;;;;;;-21.23;72.16;100513.84;5057388;28;20055;-67
2024/01/10 10:35:54;;;;;;;23.25;12.93;;;;;;;-21.38;72.35;100515.53;5045293;28;20719;-64
2024/01/10 10:38:25;;;;;;;22.45;11.98;;;;;;;-21.27;72.75;100506.78;5058516;28;20131;-67
2024/01/10 10:40:55;;;;;;;10.38;7.95;;;;;;;-21.25;72.92;100510.31;5047672;28;20059;-64
2024/01/10 10:43:27;;;;;;;11.68;7.70;;;;;;;-21.39;72.67;100506.31;5058561;28;20125;-67
2024/01/10 10:45:59;;;;;;;23.27;13.32;;;;;;;-21.59;72.74;100506.56;5049160;28;20084;-63
2024/01/10 10:48:35;;;;;;;54.03;24.25;;;;;;;-21.73;73.15;100486.78;5060369;28;20055;-65
2024/01/10 10:51:08;;;;;;;22.13;11.43;;;;;;;-21.80;73.31;100491.03;5049204;28;20075;-63
2024/01/10 10:53:41;;;;;;;24.75;13.45;;;;;;;-21.83;73.64;100493.16;5049545;28;20040;-65
2024/01/10 10:56:12;;;;;;;9.18;7.88;;;;;;;-21.80;73.74;100505.91;5059764;28;20059;-64
2024/01/10 10:58:44;;;;;;;8.85;7.93;;;;;;;-21.89;74.16;100504.84;5048964;28;20066;-65
2024/01/10 11:01:17;;;;;;;9.35;7.10;;;;;;;-21.73;74.55;100514.94;5060169;28;20075;-62
2024/01/10 11:03:49;;;;;;;7.00;6.30;;;;;;;-21.57;75.07;100515.06;5049682;28;20044;-65
2024/01/10 11:06:21;;;;;;;15.20;8.77;;;;;;;-21.35;75.30;100526.66;5059518;28;20127;-64
2024/01/10 11:08:55;;;;;;;16.73;8.85;;;;;;;-21.60;74.53;100484.94;5049456;28;20138;-66
2024/01/10 11:11:39;;;;;;;11.60;8.05;;;;;;;-21.35;74.45;100534.09;5059305;28;20143;-63
2024/01/10 11:14:23;;;;;;;13.93;7.72;;;;;;;-21.34;73.79;100530.91;5029162;28;20056;-65
2024/01/10 11:17:35;;;;;;;10.65;7.55;;;;;;;-21.49;72.91;100544.06;5029843;28;20053;-65
2024/01/10 11:20:20;;;;;;;11.23;7.53;;;;;;;-21.32;73.36;100529.47;4964273;28;20048;-66
2024/01/10 11:23:14;;;;;;;11.55;7.32;;;;;;;-21.40;73.23;100490.53;5010480;28;20048;-64
2024/01/10 11:25:45;;;;;;;11.10;6.97;;;;;;;-21.06;72.30;100558.81;5010700;28;20041;-62
2024/01/10 11:28:16;;;;;;;18.85;8.20;;;;;;;-21.08;71.49;100554.41;5020140;28;20060;-62
2024/01/10 11:30:56;;;;;;;25.25;8.35;;;;;;;-21.19;70.58;100560.63;5007501;28;20076;-64
2024/01/10 11:33:33;;;;;;;;;;;;;;;-21.45;69.68;100560.22;5020536;28;20049;-66